sensor_id;sensor_type;location;lat;lon;timestamp;pressure;altitude;pressure_sealevel;temperature;humidity
8253;BME280;61313;48.396;10.008;2023-02-15T00:00:11;97551.75;;;1.73;77.01
8253;BME280;61313;48.396;10.008;2023-02-15T00:02:36;97554.47;;;1.88;77.11
8253;BME280;61313;48.396;10.008;2023-02-15T00:05:02;97552.84;;;1.16;78.95
8253;BME280;61313;48.396;10.008;2023-02-15T00:07:27;97545.31;;;1.33;78.53
8253;BME280;61313;48.396;10.008;2023-02-15T00:09:53;97544.72;;;1.63;77.37
8253;BME280;61313;48.396;10.008;2023-02-15T00:12:18;97540.69;;;1.93;77.08
8253;BME280;61313;48.396;10.008;2023-02-15T00:14:44;97539.56;;;1.64;77.27
8253;BME280;61313;48.396;10.008;2023-02-15T00:17:09;97537.47;;;2.20;76.25
8253;BME280;61313;48.396;10.008;2023-02-15T00:19:35;97534.53;;;1.75;77.20
8253;BME280;61313;48.396;10.008;2023-02-15T00:22:01;97533.63;;;1.73;77.19
8253;BME280;61313;48.396;10.008;2023-02-15T00:24:26;97541.94;;;1.40;77.37
8253;BME280;61313;48.396;10.008;2023-02-15T00:26:52;97535.84;;;1.36;78.02
8253;BME280;61313;48.396;10.008;2023-02-15T00:29:19;97535.97;;;1.47;76.92
8253;BME280;61313;48.396;10.008;2023-02-15T00:31:44;97532.69;;;1.65;77.04
8253;BME280;61313;48.396;10.008;2023-02-15T00:34:11;97532.53;;;1.48;78.46
8253;BME280;61313;48.396;10.008;2023-02-15T00:36:37;97525.50;;;1.35;79.25
8253;BME280;61313;48.396;10.008;2023-02-15T00:39:03;97529.72;;;1.26;79.48
8253;BME280;61313;48.396;10.008;2023-02-15T00:41:30;97526.38;;;1.37;78.39
8253;BME280;61313;48.396;10.008;2023-02-15T00:43:56;97530.47;;;1.18;78.44
8253;BME280;61313;48.396;10.008;2023-02-15T00:46:21;97530.63;;;1.30;79.63
8253;BME280;61313;48.396;10.008;2023-02-15T00:48:47;97525.63;;;1.48;77.44
8253;BME280;61313;48.396;10.008;2023-02-15T00:51:12;97520.22;;;1.24;78.25
8253;BME280;61313;48.396;10.008;2023-02-15T00:53:37;97522.97;;;1.41;78.52
8253;BME280;61313;48.396;10.008;2023-02-15T00:56:03;97523.00;;;1.45;78.05
8253;BME280;61313;48.396;10.008;2023-02-15T00:58:28;97512.13;;;1.80;77.09
8253;BME280;61313;48.396;10.008;2023-02-15T01:00:54;97513.13;;;1.96;76.32
8253;BME280;61313;48.396;10.008;2023-02-15T01:03:20;97507.22;;;2.16;75.54
8253;BME280;61313;48.396;10.008;2023-02-15T01:05:47;97518.53;;;2.31;74.54
8253;BME280;61313;48.396;10.008;2023-02-15T01:08:13;97510.53;;;1.95;74.05
8253;BME280;61313;48.396;10.008;2023-02-15T01:10:38;97507.88;;;1.87;75.00
8253;BME280;61313;48.396;10.008;2023-02-15T01:13:04;97505.16;;;1.73;74.96
8253;BME280;61313;48.396;10.008;2023-02-15T01:15:30;97499.91;;;1.64;75.01
8253;BME280;61313;48.396;10.008;2023-02-15T01:17:55;97511.97;;;1.62;74.59
8253;BME280;61313;48.396;10.008;2023-02-15T01:20:23;97503.78;;;1.19;77.18
8253;BME280;61313;48.396;10.008;2023-02-15T01:22:49;97505.38;;;1.08;77.76
8253;BME280;61313;48.396;10.008;2023-02-15T01:25:20;97509.13;;;1.36;77.50
8253;BME280;61313;48.396;10.008;2023-02-15T01:27:46;97503.28;;;1.55;77.01
8253;BME280;61313;48.396;10.008;2023-02-15T01:30:12;97507.25;;;1.21;78.58
8253;BME280;61313;48.396;10.008;2023-02-15T01:32:38;97496.69;;;1.01;79.88
8253;BME280;61313;48.396;10.008;2023-02-15T01:35:04;97505.66;;;1.37;79.66
8253;BME280;61313;48.396;10.008;2023-02-15T01:37:33;97507.41;;;1.39;79.04
8253;BME280;61313;48.396;10.008;2023-02-15T01:39:58;97497.69;;;1.14;79.95
8253;BME280;61313;48.396;10.008;2023-02-15T01:42:25;97500.41;;;1.26;79.79
8253;BME280;61313;48.396;10.008;2023-02-15T01:44:53;97492.16;;;1.64;78.66
8253;BME280;61313;48.396;10.008;2023-02-15T01:47:44;97493.91;;;1.69;77.98
8253;BME280;61313;48.396;10.008;2023-02-15T01:50:38;97487.66;;;1.44;77.35
8253;BME280;61313;48.396;10.008;2023-02-15T01:55:49;97485.78;;;1.28;78.74
8253;BME280;61313;48.396;10.008;2023-02-15T01:58:16;97484.00;;;1.21;79.15
8253;BME280;61313;48.396;10.008;2023-02-15T02:00:42;97478.13;;;1.40;78.70
8253;BME280;61313;48.396;10.008;2023-02-15T02:03:08;97484.97;;;1.34;79.19
8253;BME280;61313;48.396;10.008;2023-02-15T02:05:34;97486.53;;;1.16;79.21
8253;BME280;61313;48.396;10.008;2023-02-15T02:08:01;97480.34;;;1.03;79.29
8253;BME280;61313;48.396;10.008;2023-02-15T02:10:27;97489.22;;;1.29;78.36
8253;BME280;61313;48.396;10.008;2023-02-15T02:13:00;97484.56;;;0.97;79.27
8253;BME280;61313;48.396;10.008;2023-02-15T02:18:44;97482.63;;;1.60;78.22
8253;BME280;61313;48.396;10.008;2023-02-15T02:21:36;97480.94;;;1.63;76.46
8253;BME280;61313;48.396;10.008;2023-02-15T02:24:37;97483.84;;;2.05;75.26
8253;BME280;61313;48.396;10.008;2023-02-15T02:35:40;97467.53;;;2.18;74.53
8253;BME280;61313;48.396;10.008;2023-02-15T02:40:57;97461.91;;;1.57;76.12
8253;BME280;61313;48.396;10.008;2023-02-15T02:46:21;97471.78;;;1.11;78.05
8253;BME280;61313;48.396;10.008;2023-02-15T02:48:49;97464.09;;;1.15;78.21
8253;BME280;61313;48.396;10.008;2023-02-15T02:51:16;97461.75;;;1.41;77.55
8253;BME280;61313;48.396;10.008;2023-02-15T02:53:54;97458.38;;;1.48;77.03
8253;BME280;61313;48.396;10.008;2023-02-15T02:59:01;97461.63;;;1.26;77.06
8253;BME280;61313;48.396;10.008;2023-02-15T03:01:34;97458.28;;;1.35;76.51
8253;BME280;61313;48.396;10.008;2023-02-15T03:04:09;97465.94;;;1.27;77.27
8253;BME280;61313;48.396;10.008;2023-02-15T03:07:11;97457.13;;;1.08;78.07
8253;BME280;61313;48.396;10.008;2023-02-15T03:09:46;97453.97;;;1.35;75.88
8253;BME280;61313;48.396;10.008;2023-02-15T03:12:18;97454.66;;;1.19;77.84
8253;BME280;61313;48.396;10.008;2023-02-15T03:14:49;97453.28;;;1.58;76.34
8253;BME280;61313;48.396;10.008;2023-02-15T03:17:17;97450.00;;;1.79;74.25
8253;BME280;61313;48.396;10.008;2023-02-15T03:19:45;97444.84;;;1.83;74.46
8253;BME280;61313;48.396;10.008;2023-02-15T03:25:13;97452.78;;;2.06;73.34
8253;BME280;61313;48.396;10.008;2023-02-15T03:27:47;97458.88;;;2.13;73.07
8253;BME280;61313;48.396;10.008;2023-02-15T03:30:15;97450.16;;;1.99;73.05
8253;BME280;61313;48.396;10.008;2023-02-15T03:32:43;97447.50;;;1.89;73.87
8253;BME280;61313;48.396;10.008;2023-02-15T03:35:09;97451.00;;;2.01;73.45
8253;BME280;61313;48.396;10.008;2023-02-15T03:42:55;97455.22;;;1.85;74.48
8253;BME280;61313;48.396;10.008;2023-02-15T03:45:27;97458.59;;;1.76;75.37
8253;BME280;61313;48.396;10.008;2023-02-15T03:47:56;97452.69;;;1.96;75.09
8253;BME280;61313;48.396;10.008;2023-02-15T03:50:26;97448.03;;;1.50;76.09
8253;BME280;61313;48.396;10.008;2023-02-15T03:53:16;97449.03;;;1.66;76.67
8253;BME280;61313;48.396;10.008;2023-02-15T03:55:47;97448.31;;;1.84;75.34
8253;BME280;61313;48.396;10.008;2023-02-15T03:58:12;97454.22;;;1.67;75.72
8253;BME280;61313;48.396;10.008;2023-02-15T04:01:55;97448.09;;;1.58;75.54
8253;BME280;61313;48.396;10.008;2023-02-15T04:04:28;97451.53;;;1.55;75.69
8253;BME280;61313;48.396;10.008;2023-02-15T04:06:55;97456.75;;;1.63;75.68
8253;BME280;61313;48.396;10.008;2023-02-15T04:09:21;97449.88;;;1.62;75.76
8253;BME280;61313;48.396;10.008;2023-02-15T04:12:05;97458.66;;;1.82;74.44
8253;BME280;61313;48.396;10.008;2023-02-15T04:14:30;97464.22;;;1.26;76.03
8253;BME280;61313;48.396;10.008;2023-02-15T04:17:14;97465.00;;;1.20;77.41
8253;BME280;61313;48.396;10.008;2023-02-15T04:19:40;97456.50;;;1.31;76.64
8253;BME280;61313;48.396;10.008;2023-02-15T04:22:23;97463.59;;;1.55;76.41
8253;BME280;61313;48.396;10.008;2023-02-15T04:25:08;97457.72;;;1.71;75.28
8253;BME280;61313;48.396;10.008;2023-02-15T04:27:41;97456.00;;;1.75;75.73
8253;BME280;61313;48.396;10.008;2023-02-15T04:30:07;97458.50;;;1.61;75.74
8253;BME280;61313;48.396;10.008;2023-02-15T04:32:33;97459.44;;;1.71;75.43
8253;BME280;61313;48.396;10.008;2023-02-15T04:34:59;97458.66;;;1.84;74.44
8253;BME280;61313;48.396;10.008;2023-02-15T04:37:24;97454.28;;;1.77;74.46
8253;BME280;61313;48.396;10.008;2023-02-15T04:39:50;97450.81;;;1.75;74.50
8253;BME280;61313;48.396;10.008;2023-02-15T04:42:16;97448.16;;;1.64;75.78
8253;BME280;61313;48.396;10.008;2023-02-15T04:44:42;97448.03;;;1.50;75.35
8253;BME280;61313;48.396;10.008;2023-02-15T04:47:07;97450.66;;;1.52;75.99
8253;BME280;61313;48.396;10.008;2023-02-15T04:49:32;97446.31;;;1.47;75.80
8253;BME280;61313;48.396;10.008;2023-02-15T04:51:58;97443.81;;;1.63;75.75
8253;BME280;61313;48.396;10.008;2023-02-15T04:54:23;97452.56;;;1.76;75.11
8253;BME280;61313;48.396;10.008;2023-02-15T04:56:49;97447.47;;;1.88;74.38
8253;BME280;61313;48.396;10.008;2023-02-15T04:59:14;97446.59;;;1.83;73.98
8253;BME280;61313;48.396;10.008;2023-02-15T05:01:40;97438.84;;;1.84;73.77
8253;BME280;61313;48.396;10.008;2023-02-15T05:04:05;97439.69;;;1.85;73.72
8253;BME280;61313;48.396;10.008;2023-02-15T05:06:31;97434.44;;;1.74;74.31
8253;BME280;61313;48.396;10.008;2023-02-15T05:08:56;97435.22;;;1.61;75.37
8253;BME280;61313;48.396;10.008;2023-02-15T05:11:24;97436.88;;;1.54;75.67
8253;BME280;61313;48.396;10.008;2023-02-15T05:13:50;97435.97;;;1.51;75.22
8253;BME280;61313;48.396;10.008;2023-02-15T05:16:15;97441.19;;;1.54;75.37
8253;BME280;61313;48.396;10.008;2023-02-15T05:18:41;97434.28;;;1.54;75.14
8253;BME280;61313;48.396;10.008;2023-02-15T05:21:06;97436.13;;;1.72;74.51
8253;BME280;61313;48.396;10.008;2023-02-15T05:23:32;97436.25;;;1.84;74.11
8253;BME280;61313;48.396;10.008;2023-02-15T05:25:57;97437.81;;;1.67;74.52
8253;BME280;61313;48.396;10.008;2023-02-15T05:28:41;97441.31;;;1.72;74.67
8253;BME280;61313;48.396;10.008;2023-02-15T05:31:12;97444.78;;;1.71;74.25
8253;BME280;61313;48.396;10.008;2023-02-15T05:33:38;97447.44;;;1.83;73.58
8253;BME280;61313;48.396;10.008;2023-02-15T05:36:04;97438.81;;;1.83;72.69
8253;BME280;61313;48.396;10.008;2023-02-15T05:38:30;97432.72;;;1.76;72.90
8253;BME280;61313;48.396;10.008;2023-02-15T05:40:56;97437.97;;;1.85;73.43
8253;BME280;61313;48.396;10.008;2023-02-15T05:43:22;97443.16;;;1.88;72.63
8253;BME280;61313;48.396;10.008;2023-02-15T05:45:49;97445.75;;;1.88;72.74
8253;BME280;61313;48.396;10.008;2023-02-15T05:48:17;97439.78;;;1.94;72.56
8253;BME280;61313;48.396;10.008;2023-02-15T05:50:43;97442.28;;;1.83;72.79
8253;BME280;61313;48.396;10.008;2023-02-15T05:53:09;97436.22;;;1.80;72.79
8253;BME280;61313;48.396;10.008;2023-02-15T05:55:37;97434.41;;;1.68;73.77
8253;BME280;61313;48.396;10.008;2023-02-15T05:58:04;97435.31;;;1.79;73.75
8253;BME280;61313;48.396;10.008;2023-02-15T06:00:29;97448.38;;;1.95;72.59
8253;BME280;61313;48.396;10.008;2023-02-15T06:02:54;97444.88;;;1.88;72.64
8253;BME280;61313;48.396;10.008;2023-02-15T06:05:20;97443.88;;;1.69;73.59
8253;BME280;61313;48.396;10.008;2023-02-15T06:07:45;97449.09;;;1.71;73.87
8253;BME280;61313;48.396;10.008;2023-02-15T06:10:11;97455.06;;;1.63;73.84
8253;BME280;61313;48.396;10.008;2023-02-15T06:12:37;97449.03;;;1.67;73.91
8253;BME280;61313;48.396;10.008;2023-02-15T06:15:03;97455.06;;;1.63;73.63
8253;BME280;61313;48.396;10.008;2023-02-15T06:17:28;97456.81;;;1.66;72.99
8253;BME280;61313;48.396;10.008;2023-02-15T06:19:54;97465.41;;;1.65;72.30
8253;BME280;61313;48.396;10.008;2023-02-15T06:22:19;97448.13;;;1.59;72.62
8253;BME280;61313;48.396;10.008;2023-02-15T06:24:46;97460.28;;;1.68;73.17
8253;BME280;61313;48.396;10.008;2023-02-15T06:27:11;97458.66;;;1.82;71.58
8253;BME280;61313;48.396;10.008;2023-02-15T06:29:37;97461.19;;;1.73;72.01
8253;BME280;61313;48.396;10.008;2023-02-15T06:32:02;97473.09;;;1.57;72.18
8253;BME280;61313;48.396;10.008;2023-02-15T06:34:28;97466.19;;;1.55;72.58
8253;BME280;61313;48.396;10.008;2023-02-15T06:36:53;97464.66;;;1.75;71.92
8253;BME280;61313;48.396;10.008;2023-02-15T06:39:19;97463.66;;;1.62;71.90
8253;BME280;61313;48.396;10.008;2023-02-15T06:41:44;97470.56;;;1.62;71.70
8253;BME280;61313;48.396;10.008;2023-02-15T06:44:10;97465.28;;;1.46;72.66
8253;BME280;61313;48.396;10.008;2023-02-15T06:46:35;97467.91;;;1.56;72.26
8253;BME280;61313;48.396;10.008;2023-02-15T06:49:00;97472.19;;;1.51;72.49
8253;BME280;61313;48.396;10.008;2023-02-15T06:51:26;97464.28;;;1.34;73.09
8253;BME280;61313;48.396;10.008;2023-02-15T06:53:51;97477.22;;;1.35;73.84
8253;BME280;61313;48.396;10.008;2023-02-15T06:56:17;97471.25;;;1.41;73.68
8253;BME280;61313;48.396;10.008;2023-02-15T06:58:42;97474.06;;;1.65;73.19
8253;BME280;61313;48.396;10.008;2023-02-15T07:01:08;97464.63;;;1.74;72.63
8253;BME280;61313;48.396;10.008;2023-02-15T07:03:35;97469.91;;;1.89;71.62
8253;BME280;61313;48.396;10.008;2023-02-15T07:06:02;97464.66;;;1.78;70.59
8253;BME280;61313;48.396;10.008;2023-02-15T07:08:28;97467.22;;;1.75;70.45
8253;BME280;61313;48.396;10.008;2023-02-15T07:10:55;97472.84;;;1.30;72.76
8253;BME280;61313;48.396;10.008;2023-02-15T07:13:44;97478.31;;;1.60;72.00
8253;BME280;61313;48.396;10.008;2023-02-15T07:16:09;97478.25;;;1.53;71.73
8253;BME280;61313;48.396;10.008;2023-02-15T07:18:35;97476.22;;;1.21;71.91
8253;BME280;61313;48.396;10.008;2023-02-15T07:21:01;97475.75;;;1.62;71.53
8253;BME280;61313;48.396;10.008;2023-02-15T07:23:26;97469.75;;;1.66;70.16
8253;BME280;61313;48.396;10.008;2023-02-15T07:25:58;97466.34;;;1.73;69.64
8253;BME280;61313;48.396;10.008;2023-02-15T07:28:24;97475.97;;;1.91;69.97
8253;BME280;61313;48.396;10.008;2023-02-15T07:30:50;97478.50;;;1.86;70.02
8253;BME280;61313;48.396;10.008;2023-02-15T07:33:15;97472.50;;;1.84;70.20
8253;BME280;61313;48.396;10.008;2023-02-15T07:35:56;97472.56;;;1.97;70.05
8253;BME280;61313;48.396;10.008;2023-02-15T07:38:29;97475.22;;;2.04;69.49
8253;BME280;61313;48.396;10.008;2023-02-15T07:41:02;97479.50;;;1.99;69.82
8253;BME280;61313;48.396;10.008;2023-02-15T07:43:29;97472.69;;;2.17;69.25
8253;BME280;61313;48.396;10.008;2023-02-15T07:45:59;97471.78;;;2.10;69.42
8253;BME280;61313;48.396;10.008;2023-02-15T07:48:24;97466.63;;;2.11;69.64
8253;BME280;61313;48.396;10.008;2023-02-15T07:50:50;97465.84;;;2.23;69.01
8253;BME280;61313;48.396;10.008;2023-02-15T07:53:15;97466.72;;;2.28;68.55
8253;BME280;61313;48.396;10.008;2023-02-15T07:55:41;97465.81;;;2.20;69.31
8253;BME280;61313;48.396;10.008;2023-02-15T07:58:06;97468.25;;;1.94;70.55
8253;BME280;61313;48.396;10.008;2023-02-15T08:00:31;97462.97;;;1.83;70.52
8253;BME280;61313;48.396;10.008;2023-02-15T08:03:17;97458.78;;;2.01;69.34
8253;BME280;61313;48.396;10.008;2023-02-15T08:05:44;97458.84;;;2.11;69.00
8253;BME280;61313;48.396;10.008;2023-02-15T08:08:10;97462.28;;;2.09;68.42
8253;BME280;61313;48.396;10.008;2023-02-15T08:11:14;97458.78;;;2.01;69.39
8253;BME280;61313;48.396;10.008;2023-02-15T08:19:01;97463.94;;;2.01;69.21
8253;BME280;61313;48.396;10.008;2023-02-15T08:21:28;97464.94;;;2.18;68.09
8253;BME280;61313;48.396;10.008;2023-02-15T08:23:54;97448.56;;;2.18;69.25
8253;BME280;61313;48.396;10.008;2023-02-15T08:26:21;97455.44;;;2.17;69.19
8253;BME280;61313;48.396;10.008;2023-02-15T08:28:46;97449.19;;;1.89;69.88
8253;BME280;61313;48.396;10.008;2023-02-15T08:31:13;97448.41;;;1.96;68.88
8253;BME280;61313;48.396;10.008;2023-02-15T08:33:40;97444.91;;;1.89;69.23
8253;BME280;61313;48.396;10.008;2023-02-15T08:36:14;97440.75;;;2.13;69.21
8253;BME280;61313;48.396;10.008;2023-02-15T08:38:40;97447.53;;;1.94;69.54
8253;BME280;61313;48.396;10.008;2023-02-15T08:41:23;97450.09;;;1.93;69.15
8253;BME280;61313;48.396;10.008;2023-02-15T08:43:52;97434.72;;;2.17;68.97
8253;BME280;61313;48.396;10.008;2023-02-15T08:46:18;97437.28;;;2.14;69.32
8253;BME280;61313;48.396;10.008;2023-02-15T08:48:45;97439.06;;;2.18;68.65
8253;BME280;61313;48.396;10.008;2023-02-15T08:51:13;97438.22;;;2.22;68.54
8253;BME280;61313;48.396;10.008;2023-02-15T08:53:40;97430.44;;;2.21;69.06
8253;BME280;61313;48.396;10.008;2023-02-15T08:56:06;97437.16;;;1.96;69.71
8253;BME280;61313;48.396;10.008;2023-02-15T08:58:32;97439.69;;;1.83;70.02
8253;BME280;61313;48.396;10.008;2023-02-15T09:00:58;97439.84;;;2.06;69.91
8253;BME280;61313;48.396;10.008;2023-02-15T09:03:24;97439.97;;;2.28;68.97
8253;BME280;61313;48.396;10.008;2023-02-15T09:05:49;97442.56;;;2.31;68.13
8253;BME280;61313;48.396;10.008;2023-02-15T09:08:15;97450.25;;;2.19;68.27
8253;BME280;61313;48.396;10.008;2023-02-15T09:10:41;97439.97;;;2.31;68.34
8253;BME280;61313;48.396;10.008;2023-02-15T09:13:06;97433.88;;;2.21;68.85
8253;BME280;61313;48.396;10.008;2023-02-15T09:15:32;97450.38;;;2.34;68.56
8253;BME280;61313;48.396;10.008;2023-02-15T09:17:57;97441.75;;;2.37;67.90
8253;BME280;61313;48.396;10.008;2023-02-15T09:20:26;97436.63;;;2.49;67.48
8253;BME280;61313;48.396;10.008;2023-02-15T09:22:53;97439.09;;;2.26;68.15
8253;BME280;61313;48.396;10.008;2023-02-15T09:25:19;97438.22;;;2.28;68.28
8253;BME280;61313;48.396;10.008;2023-02-15T09:27:45;97439.06;;;2.21;68.64
8253;BME280;61313;48.396;10.008;2023-02-15T09:30:10;97435.75;;;2.44;68.33
8253;BME280;61313;48.396;10.008;2023-02-15T09:32:36;97440.06;;;2.48;68.49
8253;BME280;61313;48.396;10.008;2023-02-15T09:35:01;97427.16;;;2.60;68.43
8253;BME280;61313;48.396;10.008;2023-02-15T09:37:27;97425.47;;;2.62;68.14
8253;BME280;61313;48.396;10.008;2023-02-15T09:39:52;97429.75;;;2.56;69.18
8253;BME280;61313;48.396;10.008;2023-02-15T09:43:00;97425.38;;;2.44;69.51
8253;BME280;61313;48.396;10.008;2023-02-15T09:56:15;97439.34;;;2.83;67.65
8253;BME280;61313;48.396;10.008;2023-02-15T10:06:46;97441.81;;;2.49;69.10
8253;BME280;61313;48.396;10.008;2023-02-15T10:20:56;97434.16;;;2.84;67.39
8253;BME280;61313;48.396;10.008;2023-02-15T10:23:47;97419.44;;;2.75;68.09
8253;BME280;61313;48.396;10.008;2023-02-15T10:26:18;97430.69;;;2.81;68.19
8253;BME280;61313;48.396;10.008;2023-02-15T10:28:49;97424.69;;;2.91;68.02
8253;BME280;61313;48.396;10.008;2023-02-15T11:00:23;97391.84;;;3.11;68.16
8253;BME280;61313;48.396;10.008;2023-02-15T11:03:33;97384.09;;;3.56;67.48
8253;BME280;61313;48.396;10.008;2023-02-15T11:06:05;97379.78;;;3.41;67.67
8253;BME280;61313;48.396;10.008;2023-02-15T11:08:43;97369.38;;;3.76;66.65
8253;BME280;61313;48.396;10.008;2023-02-15T11:11:15;97368.47;;;3.96;65.41
8253;BME280;61313;48.396;10.008;2023-02-15T11:13:47;97365.84;;;4.10;64.66
8253;BME280;61313;48.396;10.008;2023-02-15T11:16:22;97358.94;;;4.07;64.30
8253;BME280;61313;48.396;10.008;2023-02-15T11:19:22;97354.59;;;4.01;65.39
8253;BME280;61313;48.396;10.008;2023-02-15T11:21:53;97355.44;;;4.16;65.06
8253;BME280;61313;48.396;10.008;2023-02-15T11:24:21;97351.97;;;4.18;65.33
8253;BME280;61313;48.396;10.008;2023-02-15T11:34:53;97338.16;;;4.06;65.83
8253;BME280;61313;48.396;10.008;2023-02-15T11:37:29;97327.72;;;4.19;65.56
8253;BME280;61313;48.396;10.008;2023-02-15T11:39:57;97336.31;;;4.40;64.69
8253;BME280;61313;48.396;10.008;2023-02-15T11:42:23;97329.28;;;4.51;64.48
8253;BME280;61313;48.396;10.008;2023-02-15T11:47:44;97333.38;;;4.95;63.16
8253;BME280;61313;48.396;10.008;2023-02-15T11:50:20;97324.66;;;5.04;62.71
8253;BME280;61313;48.396;10.008;2023-02-15T11:52:50;97328.81;;;5.28;61.78
8253;BME280;61313;48.396;10.008;2023-02-15T11:55:22;97324.38;;;5.38;62.10
8253;BME280;61313;48.396;10.008;2023-02-15T11:57:56;97325.84;;;5.69;61.57
8253;BME280;61313;48.396;10.008;2023-02-15T12:02:53;97317.66;;;6.06;59.72
8253;BME280;61313;48.396;10.008;2023-02-15T12:05:23;97307.78;;;6.33;59.10
8253;BME280;61313;48.396;10.008;2023-02-15T12:07:53;97308.63;;;6.35;58.96
8253;BME280;61313;48.396;10.008;2023-02-15T12:10:24;97307.13;;;6.15;59.39
8253;BME280;61313;48.396;10.008;2023-02-15T12:13:14;97314.50;;;6.52;58.59
8253;BME280;61313;48.396;10.008;2023-02-15T12:16:04;97296.97;;;6.62;58.95
8253;BME280;61313;48.396;10.008;2023-02-15T12:18:42;97300.28;;;6.75;58.09
8253;BME280;61313;48.396;10.008;2023-02-15T12:21:14;97292.75;;;6.52;57.83
8253;BME280;61313;48.396;10.008;2023-02-15T12:23:51;97290.59;;;6.83;58.05
8253;BME280;61313;48.396;10.008;2023-02-15T12:26:55;97278.09;;;7.04;57.75
8253;BME280;61313;48.396;10.008;2023-02-15T12:29:24;97278.03;;;7.08;57.40
8253;BME280;61313;48.396;10.008;2023-02-15T12:31:52;97278.81;;;7.13;57.33
8253;BME280;61313;48.396;10.008;2023-02-15T12:34:30;97272.72;;;7.14;57.71
8253;BME280;61313;48.396;10.008;2023-02-15T12:37:07;97274.19;;;7.31;57.41
8253;BME280;61313;48.396;10.008;2023-02-15T12:39:34;97269.19;;;7.18;57.80
8253;BME280;61313;48.396;10.008;2023-02-15T12:42:08;97263.06;;;7.18;58.25
8253;BME280;61313;48.396;10.008;2023-02-15T12:45:02;97257.53;;;7.38;58.14
8253;BME280;61313;48.396;10.008;2023-02-15T12:47:29;97246.16;;;7.42;58.41
8253;BME280;61313;48.396;10.008;2023-02-15T12:50:11;97253.69;;;7.57;57.66
8253;BME280;61313;48.396;10.008;2023-02-15T12:52:43;97247.34;;;7.71;57.86
8253;BME280;61313;48.396;10.008;2023-02-15T12:55:27;97241.66;;;7.49;58.83
8253;BME280;61313;48.396;10.008;2023-02-15T12:58:20;97239.78;;;7.55;58.31
8253;BME280;61313;48.396;10.008;2023-02-15T13:00:48;97235.31;;;7.62;58.58
8253;BME280;61313;48.396;10.008;2023-02-15T13:03:26;97230.66;;;7.78;58.57
8253;BME280;61313;48.396;10.008;2023-02-15T13:05:53;97224.44;;;7.85;57.98
8253;BME280;61313;48.396;10.008;2023-02-15T13:08:28;97218.38;;;7.81;58.50
8253;BME280;61313;48.396;10.008;2023-02-15T13:10:57;97220.78;;;7.94;58.38
8253;BME280;61313;48.396;10.008;2023-02-15T13:13:27;97222.22;;;8.09;58.12
8253;BME280;61313;48.396;10.008;2023-02-15T13:15:58;97213.66;;;8.00;58.45
8253;BME280;61313;48.396;10.008;2023-02-15T13:18:33;97202.44;;;7.95;58.79
8253;BME280;61313;48.396;10.008;2023-02-15T13:21:20;97198.91;;;7.98;59.04
8253;BME280;61313;48.396;10.008;2023-02-15T13:24:13;97198.31;;;7.83;59.98
8253;BME280;61313;48.396;10.008;2023-02-15T13:26:41;97206.22;;;7.80;59.94
8253;BME280;61313;48.396;10.008;2023-02-15T13:29:21;97193.19;;;7.79;60.57
8253;BME280;61313;48.396;10.008;2023-02-15T13:31:48;97188.50;;;7.95;60.63
8253;BME280;61313;48.396;10.008;2023-02-15T13:34:18;97192.75;;;8.00;60.27
8253;BME280;61313;48.396;10.008;2023-02-15T13:55:44;97186.44;;;8.11;61.30
8253;BME280;61313;48.396;10.008;2023-02-15T13:58:41;97187.94;;;8.22;60.75
8253;BME280;61313;48.396;10.008;2023-02-15T14:01:36;97185.16;;;8.28;60.26
8253;BME280;61313;48.396;10.008;2023-02-15T14:07:02;97179.72;;;8.39;60.15
8253;BME280;61313;48.396;10.008;2023-02-15T14:12:26;97186.91;;;8.30;59.79
8253;BME280;61313;48.396;10.008;2023-02-15T14:15:04;97181.91;;;8.19;60.33
8253;BME280;61313;48.396;10.008;2023-02-15T14:20:41;97175.81;;;8.18;60.80
8253;BME280;61313;48.396;10.008;2023-02-15T14:23:47;97175.44;;;8.35;60.72
8253;BME280;61313;48.396;10.008;2023-02-15T14:26:38;97174.72;;;8.28;59.96
8253;BME280;61313;48.396;10.008;2023-02-15T14:31:48;97178.03;;;7.96;60.90
8253;BME280;61313;48.396;10.008;2023-02-15T14:34:30;97168.97;;;7.71;61.83
8253;BME280;61313;48.396;10.008;2023-02-15T14:37:01;97166.78;;;7.93;61.73
8253;BME280;61313;48.396;10.008;2023-02-15T14:40:04;97167.63;;;7.93;61.04
8253;BME280;61313;48.396;10.008;2023-02-15T14:42:53;97166.84;;;7.90;61.71
8253;BME280;61313;48.396;10.008;2023-02-15T14:45:35;97167.50;;;8.01;61.64
8253;BME280;61313;48.396;10.008;2023-02-15T14:48:25;97167.16;;;8.15;60.96
8253;BME280;61313;48.396;10.008;2023-02-15T14:50:54;97168.75;;;8.22;60.78
8253;BME280;61313;48.396;10.008;2023-02-15T14:53:34;97164.25;;;8.28;60.49
8253;BME280;61313;48.396;10.008;2023-02-15T15:01:33;97168.38;;;8.00;60.96
8253;BME280;61313;48.396;10.008;2023-02-15T15:04:06;97157.44;;;8.21;60.59
8253;BME280;61313;48.396;10.008;2023-02-15T15:06:35;97159.84;;;8.31;60.92
8253;BME280;61313;48.396;10.008;2023-02-15T15:09:29;97163.31;;;8.31;59.84
8253;BME280;61313;48.396;10.008;2023-02-15T15:14:50;97159.66;;;8.41;59.80
8253;BME280;61313;48.396;10.008;2023-02-15T15:22:28;97164.81;;;8.43;59.52
8253;BME280;61313;48.396;10.008;2023-02-15T15:27:49;97167.41;;;8.44;58.88
8253;BME280;61313;48.396;10.008;2023-02-15T15:48:38;97171.75;;;8.05;61.57
8253;BME280;61313;48.396;10.008;2023-02-15T15:51:17;97167.16;;;7.74;62.97
8253;BME280;61313;48.396;10.008;2023-02-15T15:53:46;97164.69;;;7.68;63.93
8253;BME280;61313;48.396;10.008;2023-02-15T15:56:23;97170.44;;;7.40;65.05
8253;BME280;61313;48.396;10.008;2023-02-15T15:58:57;97165.69;;;7.14;66.05
8253;BME280;61313;48.396;10.008;2023-02-15T16:01:26;97171.44;;;7.33;65.87
8253;BME280;61313;48.396;10.008;2023-02-15T16:03:55;97171.53;;;7.27;66.12
8253;BME280;61313;48.396;10.008;2023-02-15T16:06:37;97171.91;;;7.09;66.55
8253;BME280;61313;48.396;10.008;2023-02-15T16:11:49;97172.16;;;6.93;66.88
8253;BME280;61313;48.396;10.008;2023-02-15T16:14:36;97170.22;;;7.05;66.48
8253;BME280;61313;48.396;10.008;2023-02-15T16:17:05;97173.75;;;7.00;66.87
8253;BME280;61313;48.396;10.008;2023-02-15T16:19:50;97170.47;;;6.91;67.49
8253;BME280;61313;48.396;10.008;2023-02-15T16:22:22;97181.94;;;6.81;67.57
8253;BME280;61313;48.396;10.008;2023-02-15T16:29:52;97181.22;;;6.71;67.84
8253;BME280;61313;48.396;10.008;2023-02-15T16:32:21;97182.03;;;6.74;67.83